McClellan-Palomar Airport (CRQ/KCRQ)

Map

Destinations

Information

Location
Carlsbad, CA
Local Time
22:35 / 10:35 pm
GMT Time
06:35 / 6:35 am
Gates
Unassigned
No FAA reported delays
METAR KCRQ 220553Z AUTO 00000KT 10SM CLR 14/13 A3020 RMK AO2 SLP226 T01390133 10178 20133 56002
TAF KCRQ 220520Z 2206/2306 VRB04KT P6SM SCT015 BKN070 FM220800 VRB03KT P6SM BKN012 FM221900 27010G18KT P6SM BKN060 FM230400 24005KT P6SM BKN015
  • No charts available